createdAt,value
2023-02-11T00:01:22.252Z,16.40
2023-02-11T00:03:49.121Z,14.18
2023-02-11T00:06:16.473Z,14.27
2023-02-11T00:11:14.772Z,17.73
2023-02-11T00:13:42.763Z,15.55
2023-02-11T00:16:12.535Z,15.85
2023-02-11T00:18:39.363Z,16.20
2023-02-11T00:21:08.530Z,17.30
2023-02-11T00:23:35.678Z,19.98
2023-02-11T00:26:02.631Z,16.35
2023-02-11T00:28:29.467Z,16.42
2023-02-11T00:31:04.476Z,16.08
2023-02-11T00:33:31.271Z,16.58
2023-02-11T00:35:59.111Z,18.13
2023-02-11T00:38:25.959Z,17.02
2023-02-11T00:40:52.796Z,17.95
2023-02-11T00:43:19.648Z,13.13
2023-02-11T00:45:46.611Z,12.25
2023-02-11T00:48:13.360Z,13.30
2023-02-11T00:50:40.249Z,16.92
2023-02-11T00:53:07.469Z,15.43
2023-02-11T00:55:34.391Z,14.70
2023-02-11T00:58:01.417Z,15.35
2023-02-11T01:00:28.465Z,14.98
2023-02-11T01:06:17.468Z,15.15
2023-02-11T01:08:44.429Z,15.77
2023-02-11T01:11:14.716Z,15.52
2023-02-11T01:13:42.478Z,16.05
2023-02-11T01:16:10.922Z,15.18
2023-02-11T01:18:56.018Z,15.95
2023-02-11T01:21:22.722Z,15.68
2023-02-11T01:23:49.505Z,16.13
2023-02-11T01:26:16.637Z,16.42
2023-02-11T01:28:43.565Z,16.92
2023-02-11T01:31:10.605Z,16.08
2023-02-11T01:33:37.364Z,16.98
2023-02-11T01:36:06.085Z,15.90
2023-02-11T01:38:33.604Z,18.02
2023-02-11T01:41:06.795Z,17.92
2023-02-11T01:43:40.704Z,17.65
2023-02-11T01:46:14.035Z,19.13
2023-02-11T01:48:48.843Z,17.88
2023-02-11T01:51:18.346Z,17.80
2023-02-11T01:54:05.948Z,19.70
2023-02-11T01:56:55.771Z,21.83
2023-02-11T01:59:32.127Z,23.63
2023-02-11T02:02:03.714Z,21.05
2023-02-11T02:04:38.422Z,20.88
2023-02-11T02:07:32.922Z,19.40
2023-02-11T02:10:07.512Z,19.65
2023-02-11T02:12:34.294Z,21.05
2023-02-11T02:15:24.717Z,22.42
2023-02-11T02:18:01.070Z,20.70
2023-02-11T02:20:55.243Z,20.38
2023-02-11T02:23:59.217Z,20.35
2023-02-11T02:26:43.884Z,19.00
2023-02-11T02:29:40.364Z,20.20
2023-02-11T02:32:17.543Z,19.25
2023-02-11T02:35:15.582Z,18.33
2023-02-11T02:38:11.467Z,18.52
2023-02-11T02:40:52.689Z,19.90
2023-02-11T02:43:20.229Z,19.00
2023-02-11T02:45:46.968Z,19.33
2023-02-11T02:48:43.786Z,20.50
2023-02-11T02:51:23.166Z,19.00
2023-02-11T02:54:04.134Z,19.10
2023-02-11T02:56:54.522Z,17.02
2023-02-11T02:59:33.067Z,17.23
2023-02-11T03:02:22.146Z,16.75
2023-02-11T03:04:53.537Z,16.58
2023-02-11T03:07:26.147Z,15.52
2023-02-11T03:09:59.888Z,15.48
2023-02-11T03:14:55.300Z,13.68
2023-02-11T03:17:25.560Z,13.15
2023-02-11T03:19:52.380Z,13.43
2023-02-11T03:22:30.479Z,13.40
2023-02-11T03:24:57.201Z,13.90
2023-02-11T03:27:41.472Z,11.70
2023-02-11T03:30:12.343Z,13.25
2023-02-11T03:32:43.994Z,13.38
2023-02-11T03:35:35.291Z,13.63
2023-02-11T03:38:21.770Z,13.38
2023-02-11T03:43:20.467Z,12.93
2023-02-11T03:45:51.123Z,13.90
2023-02-11T03:48:30.051Z,14.23
2023-02-11T03:50:58.573Z,15.48
2023-02-11T03:53:25.400Z,13.90
2023-02-11T03:55:54.720Z,14.38
2023-02-11T03:58:21.621Z,14.98
2023-02-11T04:00:48.508Z,14.65
2023-02-11T04:03:15.316Z,13.60
2023-02-11T04:05:42.137Z,13.45
2023-02-11T04:08:09.154Z,14.55
2023-02-11T04:10:35.913Z,15.50
2023-02-11T04:13:02.854Z,14.40
2023-02-11T04:15:29.615Z,14.23
2023-02-11T04:17:56.343Z,14.73
2023-02-11T04:20:23.117Z,14.05
2023-02-11T04:22:49.901Z,15.70
2023-02-11T04:25:16.743Z,15.52
2023-02-11T04:27:43.672Z,16.30
2023-02-11T04:30:10.909Z,17.67
2023-02-11T04:32:37.722Z,17.63
2023-02-11T04:35:04.914Z,17.30
2023-02-11T04:37:31.722Z,17.90
2023-02-11T04:39:58.504Z,18.48
2023-02-11T04:42:25.364Z,18.75
2023-02-11T04:44:52.148Z,16.85
2023-02-11T04:47:19.307Z,17.27
2023-02-11T04:49:46.150Z,17.83
2023-02-11T04:52:12.956Z,17.33
2023-02-11T04:54:39.883Z,17.08
2023-02-11T04:57:06.846Z,15.68
2023-02-11T04:59:33.634Z,16.63
2023-02-11T05:02:00.449Z,16.83
2023-02-11T05:04:27.354Z,15.32
2023-02-11T05:06:54.619Z,16.95
2023-02-11T05:09:22.026Z,17.83
2023-02-11T05:11:48.796Z,18.83
2023-02-11T05:14:15.557Z,17.83
2023-02-11T05:16:42.358Z,17.85
2023-02-11T05:19:09.152Z,17.60
2023-02-11T05:21:35.926Z,16.95
2023-02-11T05:24:02.738Z,17.50
2023-02-11T05:26:29.578Z,17.88
2023-02-11T05:28:56.608Z,16.88
2023-02-11T05:31:23.397Z,17.08
2023-02-11T05:33:50.125Z,18.27
2023-02-11T05:36:17.146Z,18.63
2023-02-11T05:38:44.066Z,18.05
2023-02-11T05:41:11.471Z,18.08
2023-02-11T05:43:38.295Z,18.80
2023-02-11T05:46:05.815Z,18.38
2023-02-11T05:58:19.694Z,19.88
2023-02-11T06:00:46.506Z,19.30
2023-02-11T06:03:13.297Z,19.33
2023-02-11T06:05:40.153Z,18.60
2023-02-11T06:08:06.932Z,19.58
2023-02-11T06:10:33.788Z,18.75
2023-02-11T06:13:01.934Z,19.45
2023-02-11T06:15:29.195Z,19.55
2023-02-11T06:17:56.345Z,20.92
2023-02-11T06:20:23.057Z,23.25
2023-02-11T06:22:49.843Z,22.23
2023-02-11T06:25:16.828Z,21.13
2023-02-11T06:27:43.771Z,21.60
2023-02-11T06:30:11.424Z,21.80
2023-02-11T06:32:46.129Z,21.15
2023-02-11T06:35:14.621Z,21.65
2023-02-11T06:37:42.360Z,24.85
2023-02-11T06:40:10.009Z,23.45
2023-02-11T06:42:39.162Z,30.08
2023-02-11T06:45:08.985Z,27.27
2023-02-11T06:47:35.763Z,29.33
2023-02-11T06:50:02.647Z,31.98
2023-02-11T06:52:29.495Z,30.33
2023-02-11T06:54:56.320Z,33.95
2023-02-11T06:57:23.131Z,33.95
2023-02-11T06:59:49.939Z,32.22
2023-02-11T07:02:19.076Z,34.13
2023-02-11T07:04:47.561Z,32.70
2023-02-11T07:07:14.446Z,34.60
2023-02-11T07:09:41.527Z,34.55
2023-02-11T07:12:10.431Z,35.97
2023-02-11T07:14:37.283Z,39.70
2023-02-11T07:17:04.853Z,37.70
2023-02-11T07:19:32.085Z,40.83
2023-02-11T07:21:58.899Z,41.03
2023-02-11T07:24:25.681Z,40.92
2023-02-11T07:26:53.749Z,40.08
2023-02-11T07:29:20.578Z,39.15
2023-02-11T07:31:47.532Z,38.30
2023-02-11T07:34:14.473Z,38.25
2023-02-11T07:36:43.640Z,36.22
2023-02-11T07:39:10.442Z,36.47
2023-02-11T07:41:38.274Z,36.13
2023-02-11T07:44:05.458Z,33.70
2023-02-11T07:46:32.814Z,29.13
2023-02-11T07:53:55.971Z,23.35
2023-02-11T07:56:23.589Z,24.35
2023-02-11T07:58:50.836Z,26.00
2023-02-11T08:01:22.607Z,23.90
2023-02-11T08:03:49.474Z,25.65
2023-02-11T08:06:20.279Z,27.20
2023-02-11T08:08:47.795Z,25.85
2023-02-11T08:11:23.513Z,23.00
2023-02-11T08:13:50.978Z,21.52
2023-02-11T08:16:27.802Z,19.80
2023-02-11T08:18:57.697Z,20.60
2023-02-11T08:21:25.150Z,19.63
2023-02-11T08:23:52.741Z,19.77
2023-02-11T08:26:21.788Z,20.23
2023-02-11T08:28:50.065Z,20.60
2023-02-11T08:31:22.576Z,19.42
2023-02-11T08:33:50.216Z,18.08
2023-02-11T08:36:20.349Z,17.13
2023-02-11T08:38:47.115Z,15.63
2023-02-11T08:41:14.973Z,14.82
2023-02-11T08:43:42.638Z,15.95
2023-02-11T08:46:14.687Z,14.75
2023-02-11T08:48:41.921Z,14.88
2023-02-11T08:51:11.705Z,16.00
2023-02-11T08:53:39.201Z,16.70
2023-02-11T08:56:06.602Z,15.98
2023-02-11T08:58:33.501Z,15.73
2023-02-11T09:01:00.267Z,16.90
2023-02-11T09:03:27.154Z,15.73
2023-02-11T09:05:54.812Z,13.98
2023-02-11T09:08:21.652Z,14.98
2023-02-11T09:10:49.065Z,14.70
2023-02-11T09:13:16.953Z,15.48
2023-02-11T09:15:46.946Z,15.57
2023-02-11T09:18:14.225Z,15.57
2023-02-11T09:23:07.837Z,19.58
2023-02-11T09:25:34.928Z,18.65
2023-02-11T09:28:02.044Z,18.13
2023-02-11T09:30:29.185Z,19.55
2023-02-11T09:32:56.231Z,19.73
2023-02-11T09:35:23.318Z,20.20
2023-02-11T09:37:50.255Z,19.27
2023-02-11T09:40:18.626Z,18.92
2023-02-11T09:43:04.007Z,18.65
2023-02-11T09:45:32.301Z,18.20
2023-02-11T09:48:10.481Z,18.48
2023-02-11T09:50:42.883Z,18.02
2023-02-11T09:53:35.420Z,18.67
2023-02-11T09:56:10.431Z,18.83
2023-02-11T09:58:40.337Z,18.52
2023-02-11T10:01:21.730Z,19.30
2023-02-11T10:04:25.558Z,17.73
2023-02-11T10:06:56.486Z,18.30
2023-02-11T10:09:41.531Z,17.73
2023-02-11T10:12:39.152Z,18.63
2023-02-11T10:15:25.902Z,18.48
2023-02-11T10:18:07.778Z,17.73
2023-02-11T10:20:46.407Z,18.27
2023-02-11T10:23:22.156Z,16.55
2023-02-11T10:25:54.502Z,17.85
2023-02-11T10:28:24.696Z,16.70
2023-02-11T10:31:03.763Z,17.65
2023-02-11T10:33:56.810Z,17.80
2023-02-11T10:36:33.031Z,20.02
2023-02-11T10:39:18.510Z,20.27
2023-02-11T10:41:50.304Z,19.13
2023-02-11T10:44:28.671Z,19.38
2023-02-11T10:46:57.491Z,19.77
2023-02-11T10:49:42.205Z,19.00
2023-02-11T10:52:27.458Z,18.35
2023-02-11T10:54:57.827Z,17.70
2023-02-11T10:57:34.754Z,17.90
2023-02-11T11:00:38.946Z,16.75
2023-02-11T11:03:31.162Z,16.77
2023-02-11T11:06:00.968Z,16.75
2023-02-11T11:08:54.126Z,17.40
2023-02-11T11:11:23.607Z,17.50
2023-02-11T11:13:53.144Z,19.63
2023-02-11T11:16:32.478Z,18.67
2023-02-11T11:19:08.396Z,19.35
2023-02-11T11:21:45.252Z,18.30
2023-02-11T11:24:39.936Z,18.17
2023-02-11T11:27:07.412Z,18.40
2023-02-11T11:29:49.426Z,17.92
2023-02-11T11:32:24.307Z,16.20
2023-02-11T11:34:56.773Z,17.02
2023-02-11T11:37:29.303Z,18.38
2023-02-11T11:40:21.889Z,17.42
2023-02-11T11:45:29.461Z,17.20
2023-02-11T11:48:24.699Z,18.92
2023-02-11T11:50:59.544Z,17.10
2023-02-11T11:53:41.229Z,18.63
2023-02-11T11:56:36.049Z,18.98
2023-02-11T11:59:11.326Z,18.25
2023-02-11T12:01:52.902Z,17.50
2023-02-11T12:04:52.762Z,19.02
2023-02-11T12:07:26.109Z,19.08
2023-02-11T12:10:10.012Z,17.95
2023-02-11T12:12:51.629Z,19.52
2023-02-11T12:15:39.710Z,19.30
2023-02-11T12:18:24.448Z,19.65
2023-02-11T12:21:22.443Z,19.05
2023-02-11T12:24:29.531Z,19.80
2023-02-11T12:27:14.953Z,18.88
2023-02-11T12:29:51.053Z,19.40
2023-02-11T12:32:23.667Z,20.80
2023-02-11T12:35:15.926Z,21.02
2023-02-11T12:38:10.639Z,19.85
2023-02-11T12:40:54.400Z,18.90
2023-02-11T12:43:24.876Z,20.08
2023-02-11T12:46:10.959Z,19.95
2023-02-11T12:49:02.335Z,21.73
2023-02-11T12:51:50.104Z,19.90
2023-02-11T12:55:10.457Z,21.25
2023-02-11T12:57:40.423Z,21.02
2023-02-11T13:00:17.256Z,20.80
2023-02-11T13:03:09.709Z,21.20
2023-02-11T13:06:02.032Z,20.75
2023-02-11T13:08:48.741Z,21.83
2023-02-11T13:11:21.424Z,20.65
2023-02-11T13:14:26.563Z,21.48
2023-02-11T13:16:54.162Z,21.40
2023-02-11T13:19:35.893Z,20.52
2023-02-11T13:22:20.036Z,21.63
2023-02-11T13:25:01.851Z,23.15
2023-02-11T13:27:58.926Z,20.83
2023-02-11T13:30:36.739Z,20.67
2023-02-11T13:33:06.687Z,20.58
2023-02-11T13:35:40.948Z,20.77
2023-02-11T13:38:21.841Z,20.95
2023-02-11T13:41:05.346Z,20.48
2023-02-11T13:43:34.613Z,19.65
2023-02-11T13:46:10.134Z,18.80
2023-02-11T13:48:49.224Z,16.70
2023-02-11T13:51:34.722Z,17.02
2023-02-11T13:54:02.502Z,19.27
2023-02-11T13:56:33.891Z,17.70
2023-02-11T13:59:04.561Z,18.55
2023-02-11T14:02:12.405Z,18.10
2023-02-11T14:05:20.813Z,19.15
2023-02-11T14:08:24.355Z,20.15
2023-02-11T14:11:14.392Z,20.60
2023-02-11T14:13:53.075Z,19.42
2023-02-11T14:16:37.366Z,18.67
2023-02-11T14:19:06.244Z,18.67
2023-02-11T14:21:39.470Z,19.10
2023-02-11T14:24:07.032Z,17.95
2023-02-11T14:26:52.041Z,19.42
2023-02-11T14:29:31.813Z,18.23
2023-02-11T14:35:10.485Z,18.25
2023-02-11T14:38:11.502Z,17.27
2023-02-11T14:40:49.470Z,16.75
2023-02-11T14:43:24.349Z,16.85
2023-02-11T14:45:55.191Z,17.25
2023-02-11T14:48:36.899Z,16.45
2023-02-11T14:51:03.704Z,16.95
2023-02-11T14:53:32.986Z,15.15
2023-02-11T14:55:59.986Z,15.23
2023-02-11T15:01:01.270Z,14.10
2023-02-11T15:06:16.455Z,14.75
2023-02-11T15:08:48.358Z,15.95
2023-02-11T15:11:19.371Z,15.80
2023-02-11T15:13:50.344Z,16.80
2023-02-11T15:16:28.749Z,16.98
2023-02-11T15:19:07.181Z,16.40
2023-02-11T15:21:35.895Z,15.45
2023-02-11T15:24:06.104Z,16.35
2023-02-11T15:26:33.461Z,16.67
2023-02-11T15:29:00.321Z,17.98
2023-02-11T15:31:28.511Z,17.17
2023-02-11T15:33:55.606Z,17.17
2023-02-11T15:39:17.369Z,17.10
2023-02-11T15:41:44.638Z,17.30
2023-02-11T15:44:32.522Z,17.88
2023-02-11T15:46:59.971Z,18.83
2023-02-11T15:49:27.172Z,18.77
2023-02-11T15:51:56.986Z,18.40
2023-02-11T15:54:29.437Z,19.30
2023-02-11T15:57:04.808Z,19.85
2023-02-11T15:59:41.438Z,19.00
2023-02-11T16:02:31.662Z,18.95
2023-02-11T16:05:05.202Z,20.35
2023-02-11T16:07:49.869Z,19.10
2023-02-11T16:10:25.957Z,19.33
2023-02-11T16:13:07.908Z,20.73
2023-02-11T16:15:34.713Z,21.33
2023-02-11T16:18:03.944Z,20.90
2023-02-11T16:20:30.976Z,22.13
2023-02-11T16:22:57.963Z,21.92
2023-02-11T16:27:53.437Z,21.90
2023-02-11T16:30:34.363Z,22.85
2023-02-11T16:33:01.550Z,23.20
2023-02-11T16:35:28.383Z,23.10
2023-02-11T16:37:55.471Z,22.27
2023-02-11T16:40:23.612Z,22.98
2023-02-11T16:42:52.413Z,21.33
2023-02-11T16:45:19.374Z,22.08
2023-02-11T16:50:22.393Z,21.42
2023-02-11T16:52:49.334Z,22.15
2023-02-11T16:57:43.126Z,22.10
2023-02-11T17:00:15.504Z,21.98
2023-02-11T17:02:42.372Z,21.48
2023-02-11T17:05:17.632Z,23.23
2023-02-11T17:07:44.411Z,23.15
2023-02-11T17:10:19.533Z,23.77
2023-02-11T17:12:47.909Z,22.65
2023-02-11T17:15:14.807Z,22.63
2023-02-11T17:17:41.684Z,22.20
2023-02-11T17:20:11.755Z,22.38
2023-02-11T17:22:38.483Z,24.17
2023-02-11T17:25:06.675Z,23.35
2023-02-11T17:27:33.493Z,22.95
2023-02-11T17:30:00.559Z,22.75
2023-02-11T17:34:54.496Z,24.17
2023-02-11T17:37:21.320Z,26.50
2023-02-11T17:39:49.365Z,23.60
2023-02-11T17:42:16.640Z,23.65
2023-02-11T17:44:44.358Z,24.10
2023-02-11T17:47:11.700Z,24.35
2023-02-11T17:49:39.336Z,24.38
2023-02-11T17:52:06.229Z,24.13
2023-02-11T17:54:33.006Z,23.83
2023-02-11T17:56:59.789Z,25.20
2023-02-11T17:59:28.402Z,25.75
2023-02-11T18:01:55.124Z,24.90
2023-02-11T18:04:22.138Z,24.77
2023-02-11T18:09:16.940Z,24.73
2023-02-11T18:11:43.763Z,25.65
2023-02-11T18:14:11.137Z,25.85
2023-02-11T18:16:40.257Z,25.90
2023-02-11T18:19:07.894Z,25.75
2023-02-11T18:21:34.771Z,27.15
2023-02-11T18:24:06.452Z,25.67
2023-02-11T18:26:33.911Z,25.70
2023-02-11T18:31:28.394Z,24.80
2023-02-11T18:33:55.740Z,25.52
2023-02-11T18:36:22.937Z,27.60
2023-02-11T18:38:50.044Z,31.73
2023-02-11T18:43:43.825Z,30.40
2023-02-11T18:48:39.680Z,29.95
2023-02-11T18:51:15.115Z,33.25
2023-02-11T18:53:42.566Z,36.13
2023-02-11T18:56:15.511Z,32.10
2023-02-11T18:58:42.370Z,31.90
2023-02-11T19:01:18.226Z,31.30
2023-02-11T19:03:45.594Z,48.55
2023-02-11T19:06:22.040Z,44.75
2023-02-11T19:08:48.877Z,51.92
2023-02-11T19:11:17.932Z,62.33
2023-02-11T19:13:47.638Z,61.67
2023-02-11T19:16:16.824Z,52.10
2023-02-11T19:18:43.659Z,47.70
2023-02-11T19:21:11.810Z,49.25
2023-02-11T19:23:38.945Z,61.83
2023-02-11T19:26:06.420Z,67.78
2023-02-11T19:28:34.136Z,69.95
2023-02-11T19:31:08.826Z,65.65
2023-02-11T19:33:35.748Z,66.30
2023-02-11T19:36:07.706Z,66.55
2023-02-11T19:38:35.332Z,69.20
2023-02-11T19:41:02.185Z,67.40
2023-02-11T19:43:28.944Z,61.08
2023-02-11T19:45:56.650Z,59.88
2023-02-11T19:48:24.888Z,49.72
2023-02-11T19:50:51.874Z,56.63
2023-02-11T19:53:18.710Z,57.25
2023-02-11T19:55:45.583Z,53.95
2023-02-11T19:58:12.408Z,57.63
2023-02-11T20:00:39.280Z,61.95
2023-02-11T20:03:06.164Z,63.10
2023-02-11T20:05:33.442Z,61.97
2023-02-11T20:08:00.448Z,60.47
2023-02-11T20:10:27.198Z,52.65
2023-02-11T20:12:54.315Z,50.83
2023-02-11T20:17:47.982Z,58.50
2023-02-11T20:20:15.021Z,59.58
2023-02-11T20:22:41.839Z,50.30
2023-02-11T20:25:10.796Z,41.13
2023-02-11T20:27:37.875Z,44.08
2023-02-11T20:32:37.760Z,44.83
2023-02-11T20:35:07.201Z,46.78
2023-02-11T20:37:34.630Z,43.92
2023-02-11T20:40:01.453Z,37.97
2023-02-11T20:42:28.313Z,40.47
2023-02-11T20:44:55.147Z,41.67
2023-02-11T20:47:22.711Z,40.53
2023-02-11T20:49:49.694Z,40.20
2023-02-11T20:52:16.710Z,38.45
2023-02-11T20:54:43.528Z,38.65
2023-02-11T20:57:10.280Z,39.78
2023-02-11T20:59:37.104Z,38.53
2023-02-11T21:02:03.980Z,37.45
2023-02-11T21:04:32.523Z,45.47
2023-02-11T21:07:01.702Z,45.92
2023-02-11T21:09:31.453Z,44.95
2023-02-11T21:11:58.394Z,41.80
2023-02-11T21:14:26.554Z,39.97
2023-02-11T21:16:53.506Z,40.65
2023-02-11T21:19:23.704Z,38.85
2023-02-11T21:21:50.488Z,38.78
2023-02-11T21:24:17.368Z,37.97
2023-02-11T21:26:44.210Z,35.85
2023-02-11T21:29:11.864Z,38.63
2023-02-11T21:31:39.159Z,38.65
2023-02-11T21:34:07.022Z,38.35
2023-02-11T21:36:34.424Z,38.22
2023-02-11T21:39:03.708Z,36.25
2023-02-11T21:41:30.819Z,34.35
2023-02-11T21:43:57.881Z,34.80
2023-02-11T21:46:24.774Z,34.50
2023-02-11T21:48:52.156Z,32.90
2023-02-11T21:51:24.733Z,32.30
2023-02-11T21:53:56.734Z,31.15
2023-02-11T21:56:26.303Z,32.00
2023-02-11T21:58:54.526Z,31.88
2023-02-11T22:01:25.029Z,31.55
2023-02-11T22:03:52.107Z,30.58
2023-02-11T22:06:21.911Z,31.70
2023-02-11T22:08:49.801Z,32.90
2023-02-11T22:11:16.636Z,32.00
2023-02-11T22:13:43.796Z,32.50
2023-02-11T22:18:39.596Z,31.00
2023-02-11T22:23:34.993Z,33.33
2023-02-11T22:26:22.184Z,34.65
2023-02-11T22:28:50.030Z,35.00
2023-02-11T22:31:23.873Z,37.60
2023-02-11T22:33:50.971Z,37.03
2023-02-11T22:36:26.022Z,37.40
2023-02-11T22:38:53.582Z,38.22
2023-02-11T22:41:21.039Z,34.60
2023-02-11T22:43:47.940Z,31.20
2023-02-11T22:46:16.925Z,31.92
2023-02-11T22:48:44.049Z,31.17
2023-02-11T22:51:19.766Z,31.52
2023-02-11T22:53:54.405Z,31.75
2023-02-11T22:56:22.300Z,30.13
2023-02-11T22:58:50.611Z,30.35
2023-02-11T23:01:18.116Z,30.77
2023-02-11T23:03:44.950Z,32.75
2023-02-11T23:06:12.625Z,29.52
2023-02-11T23:08:41.030Z,29.10
2023-02-11T23:11:14.205Z,28.75
2023-02-11T23:13:42.613Z,28.88
2023-02-11T23:16:12.277Z,29.55
2023-02-11T23:18:41.600Z,30.27
2023-02-11T23:21:12.672Z,29.17
2023-02-11T23:23:39.846Z,29.80
2023-02-11T23:26:10.535Z,31.00
2023-02-11T23:28:37.685Z,28.55
2023-02-11T23:33:46.114Z,28.60
2023-02-11T23:36:13.833Z,28.60
2023-02-11T23:38:41.199Z,29.42
2023-02-11T23:41:08.190Z,30.30
2023-02-11T23:43:35.033Z,29.02
2023-02-11T23:46:02.026Z,30.50
2023-02-11T23:48:28.916Z,27.88
2023-02-11T23:50:55.979Z,28.27
2023-02-11T23:53:22.826Z,26.85
2023-02-11T23:55:49.766Z,27.65
2023-02-11T23:58:16.610Z,26.52
